Time;durP1;ratioP1;P1;durP2;ratioP2;P2;SDS_P1;SDS_P2;PMS_P1;PMS_P2;Temp;Humidity;BMP_temperature;BMP_pressure;BME280_temperature;BME280_humidity;BME280_pressure;Samples;Min_cycle;Max_cycle;Signal;HPM_P1;HPM_P2
2022/05/30 00:02:25;;;;;;;3.72;1.70;;;10.90;99.90;;;;;;5017325;28;20054;-63
2022/05/30 00:04:51;;;;;;;4.82;1.60;;;11.00;99.90;;;;;;5018161;28;20034;-62
2022/05/30 00:07:17;;;;;;;4.50;1.67;;;11.00;99.90;;;;;;5017258;28;20037;-63
2022/05/30 00:09:43;;;;;;;4.55;1.40;;;11.10;99.90;;;;;;5018050;28;20052;-62
2022/05/30 00:12:09;;;;;;;6.93;1.80;;;11.10;99.90;;;;;;5018146;28;20146;-63
2022/05/30 00:14:35;;;;;;;4.20;1.65;;;11.10;99.90;;;;;;5018033;28;20061;-63
2022/05/30 00:17:01;;;;;;;4.57;1.70;;;11.00;99.90;;;;;;5017337;28;20062;-63
2022/05/30 00:19:27;;;;;;;3.88;1.58;;;10.90;99.90;;;;;;5017174;28;20066;-63
2022/05/30 00:21:56;;;;;;;4.35;1.95;;;10.80;99.90;;;;;;5017262;28;20030;-63
2022/05/30 00:24:22;;;;;;;4.97;2.00;;;10.70;99.90;;;;;;5017905;28;20026;-63
2022/05/30 00:26:48;;;;;;;5.45;2.10;;;10.60;99.90;;;;;;5017791;28;20029;-63
2022/05/30 00:29:14;;;;;;;5.70;2.10;;;10.60;99.90;;;;;;5017787;28;20030;-62
2022/05/30 00:31:40;;;;;;;2.83;1.65;;;10.50;99.90;;;;;;5017763;28;20053;-62
2022/05/30 00:34:05;;;;;;;4.03;1.98;;;10.50;99.90;;;;;;5017075;28;20037;-63
2022/05/30 00:36:31;;;;;;;4.10;2.63;;;10.60;99.90;;;;;;5016912;28;20026;-62
2022/05/30 00:38:57;;;;;;;6.68;2.92;;;10.50;99.90;;;;;;5000507;28;20030;-62
2022/05/30 00:41:23;;;;;;;3.35;2.10;;;10.60;99.90;;;;;;5016783;28;20045;-62
2022/05/30 00:43:49;;;;;;;8.05;2.67;;;10.50;99.90;;;;;;5017544;28;20279;-61
2022/05/30 00:46:19;;;;;;;6.15;2.47;;;10.50;99.90;;;;;;5016862;28;20029;-62
2022/05/30 00:49:03;;;;;;;4.18;1.90;;;10.50;99.90;;;;;;5017448;28;20026;-61
2022/05/30 00:51:31;;;;;;;5.88;1.92;;;10.50;99.90;;;;;;5017451;28;20042;-62
2022/05/30 00:53:59;;;;;;;5.68;2.28;;;10.50;99.90;;;;;;5017332;28;20026;-62
2022/05/30 00:56:32;;;;;;;4.75;2.55;;;10.50;99.90;;;;;;5016653;28;20026;-62
2022/05/30 00:58:59;;;;;;;6.32;2.30;;;10.60;99.90;;;;;;5017726;28;20033;-62
2022/05/30 01:01:26;;;;;;;5.45;2.00;;;10.60;99.90;;;;;;5016439;28;20049;-62
2022/05/30 01:06:44;;;;;;;3.92;1.98;;;10.40;99.90;;;;;;5017321;28;20057;-62
2022/05/30 01:09:17;;;;;;;7.53;2.10;;;10.30;99.90;;;;;;5015833;28;20034;-62
2022/05/30 01:11:51;;;;;;;4.35;2.30;;;10.40;99.90;;;;;;5016425;28;20029;-62
2022/05/30 01:14:18;;;;;;;5.53;2.57;;;10.40;99.90;;;;;;5017500;28;20038;-62
2022/05/30 01:16:44;;;;;;;6.18;2.20;;;10.40;99.90;;;;;;4984076;28;20354;-62
2022/05/30 01:19:23;;;;;;;3.60;2.20;;;10.20;99.90;;;;;;5017102;28;20045;-62
2022/05/30 01:22:07;;;;;;;4.78;2.35;;;10.20;99.90;;;;;;5016785;28;20030;-62
2022/05/30 01:25:05;;;;;;;4.43;2.17;;;10.20;99.90;;;;;;5016669;28;20419;-62
2022/05/30 01:28:09;;;;;;;7.38;2.33;;;10.00;99.90;;;;;;5016837;28;20356;-62
2022/05/30 01:30:40;;;;;;;6.68;2.30;;;9.90;99.90;;;;;;5016264;28;20125;-62
2022/05/30 01:33:07;;;;;;;3.42;2.10;;;9.90;99.90;;;;;;5016174;28;20030;-63
2022/05/30 01:35:33;;;;;;;3.92;1.80;;;9.80;99.90;;;;;;5016201;28;20038;-63
2022/05/30 01:38:04;;;;;;;4.18;1.92;;;9.70;99.90;;;;;;5016228;28;20037;-63
2022/05/30 01:40:32;;;;;;;3.55;2.10;;;9.60;99.90;;;;;;5016202;28;20410;-62
2022/05/30 01:42:58;;;;;;;5.00;2.22;;;9.60;99.90;;;;;;5016130;28;20329;-62
2022/05/30 01:45:25;;;;;;;3.40;1.88;;;9.60;99.90;;;;;;5016574;28;20038;-62
2022/05/30 01:47:52;;;;;;;5.30;1.90;;;9.50;99.90;;;;;;5016049;28;20314;-63
2022/05/30 01:50:21;;;;;;;4.22;2.05;;;9.60;99.90;;;;;;5016003;28;20038;-63
2022/05/30 01:52:46;;;;;;;6.25;2.20;;;9.40;99.90;;;;;;5016830;28;20026;-62
2022/05/30 01:55:15;;;;;;;3.45;1.98;;;9.40;99.90;;;;;;5000097;28;20034;-63
2022/05/30 01:58:01;;;;;;;2.58;1.80;;;9.20;99.90;;;;;;5016012;28;20037;-63
2022/05/30 02:00:33;;;;;;;3.55;1.80;;;9.20;99.90;;;;;;5016362;28;20147;-63
2022/05/30 02:02:59;;;;;;;3.15;1.90;;;9.30;99.90;;;;;;5016051;28;20410;-63
2022/05/30 02:05:25;;;;;;;5.03;2.42;;;9.20;99.90;;;;;;4999615;28;20376;-63
2022/05/30 02:07:52;;;;;;;6.57;2.22;;;9.30;99.90;;;;;;5015846;28;20107;-62
2022/05/30 02:10:24;;;;;;;4.13;2.05;;;9.40;99.90;;;;;;5016680;28;20390;-62
2022/05/30 02:12:52;;;;;;;5.90;2.40;;;9.40;99.90;;;;;;5015856;28;20034;-62
2022/05/30 02:17:00;;;;;;;6.25;2.40;;;9.40;99.90;;;;;;5016119;28;20041;-62
2022/05/30 02:18:22;;;;;;;4.72;1.90;;;9.40;99.90;;;;;;5017183;28;20105;-63
2022/05/30 02:20:48;;;;;;;5.28;2.10;;;9.40;99.90;;;;;;5018328;28;20125;-63
2022/05/30 02:23:14;;;;;;;6.43;2.30;;;9.30;99.90;;;;;;5003123;28;20026;-62
2022/05/30 02:25:41;;;;;;;7.00;2.10;;;9.30;99.90;;;;;;5020324;28;20117;-63
2022/05/30 02:28:06;;;;;;;3.78;2.00;;;9.20;99.90;;;;;;5019167;28;20034;-64
2022/05/30 02:30:32;;;;;;;3.65;2.00;;;9.10;99.90;;;;;;5019237;28;20034;-62
2022/05/30 02:36:38;;;;;;;4.60;2.30;;;9.10;99.90;;;;;;5002996;28;20037;-63
2022/05/30 02:38:29;;;;;;;4.18;2.15;;;9.10;99.90;;;;;;5019163;28;20073;-62
2022/05/30 02:41:18;;;;;;;3.90;2.10;;;9.10;99.90;;;;;;4999476;28;20372;-62
2022/05/30 02:44:07;;;;;;;5.60;1.90;;;9.10;99.90;;;;;;5019937;28;20038;-63
2022/05/30 02:46:34;;;;;;;6.97;2.75;;;9.00;99.90;;;;;;5018894;28;20030;-63
2022/05/30 02:49:00;;;;;;;6.25;2.15;;;9.00;99.90;;;;;;5020072;28;20041;-63
2022/05/30 02:51:26;;;;;;;3.70;1.80;;;9.10;99.90;;;;;;5018935;28;20029;-63
2022/05/30 02:53:52;;;;;;;6.15;2.17;;;9.10;99.90;;;;;;5018830;28;20100;-62
2022/05/30 02:56:37;;;;;;;7.18;2.17;;;9.00;99.90;;;;;;5019753;28;20072;-63
2022/05/30 02:59:04;;;;;;;5.45;2.35;;;9.00;99.90;;;;;;5019457;28;20310;-63
2022/05/30 03:01:35;;;;;;;4.40;2.05;;;9.00;99.90;;;;;;5002706;28;20076;-63
2022/05/30 03:04:04;;;;;;;3.75;2.08;;;8.90;99.90;;;;;;5018650;28;20030;-63
2022/05/30 03:06:30;;;;;;;3.95;1.95;;;8.90;99.90;;;;;;5018608;28;20034;-63
2022/05/30 03:08:58;;;;;;;3.92;1.92;;;8.80;99.90;;;;;;5018546;28;20306;-63
2022/05/30 03:11:47;;;;;;;5.05;2.10;;;8.80;99.90;;;;;;5013168;28;20400;-63
2022/05/30 03:14:16;;;;;;;3.80;2.08;;;8.80;99.90;;;;;;5002469;28;20040;-63
2022/05/30 03:16:42;;;;;;;2.58;1.80;;;8.70;99.90;;;;;;5018370;28;20121;-62
2022/05/30 03:19:08;;;;;;;3.85;2.20;;;8.80;99.90;;;;;;5002033;28;20037;-63
2022/05/30 03:21:35;;;;;;;3.05;2.03;;;8.80;99.90;;;;;;5018143;28;20038;-62
2022/05/30 03:24:01;;;;;;;6.60;2.33;;;8.80;99.90;;;;;;5018219;28;20065;-62
2022/05/30 03:26:35;;;;;;;5.10;2.33;;;8.80;99.90;;;;;;5019172;28;20070;-63
2022/05/30 03:29:02;;;;;;;5.28;2.70;;;8.90;99.90;;;;;;5001919;28;20030;-63
2022/05/30 03:31:28;;;;;;;4.93;2.30;;;9.10;99.90;;;;;;5001747;28;20360;-63
2022/05/30 03:33:54;;;;;;;3.40;2.00;;;9.20;99.90;;;;;;5017705;28;20034;-62
2022/05/30 03:36:28;;;;;;;5.25;2.45;;;9.20;99.90;;;;;;5017940;28;20041;-63
2022/05/30 03:39:00;;;;;;;5.88;2.20;;;9.30;99.90;;;;;;5019097;28;20053;-63
2022/05/30 03:41:46;;;;;;;5.45;2.17;;;9.40;99.90;;;;;;4997856;28;20041;-63
2022/05/30 03:44:31;;;;;;;5.68;2.00;;;9.40;99.90;;;;;;5004015;28;20033;-63
2022/05/30 03:46:57;;;;;;;4.60;2.15;;;9.50;99.90;;;;;;5018437;28;20112;-64
2022/05/30 03:49:23;;;;;;;5.00;2.25;;;9.60;99.90;;;;;;5001546;28;20122;-63
2022/05/30 03:51:50;;;;;;;5.07;2.30;;;9.60;99.90;;;;;;5017716;28;20034;-63
2022/05/30 03:54:16;;;;;;;12.05;2.33;;;9.70;99.90;;;;;;5017566;28;20041;-63
2022/05/30 03:56:42;;;;;;;5.38;2.38;;;9.80;99.90;;;;;;5018416;28;20101;-64
2022/05/30 03:59:08;;;;;;;9.50;2.88;;;10.00;99.90;;;;;;5001459;28;20398;-63
2022/05/30 04:01:34;;;;;;;6.72;2.53;;;10.20;99.90;;;;;;5000975;28;20120;-64
2022/05/30 04:04:00;;;;;;;8.95;2.63;;;10.30;99.90;;;;;;5018594;28;20050;-63
2022/05/30 04:06:27;;;;;;;8.40;2.38;;;10.30;99.90;;;;;;5001176;28;20052;-63
2022/05/30 04:08:54;;;;;;;7.43;2.65;;;10.30;99.90;;;;;;5017948;28;20175;-63
2022/05/30 04:11:38;;;;;;;7.35;2.60;;;10.30;99.90;;;;;;5018135;28;20049;-66
2022/05/30 04:14:23;;;;;;;5.22;2.40;;;10.30;99.90;;;;;;5018692;28;20100;-63
2022/05/30 04:17:00;;;;;;;5.70;2.40;;;10.30;99.90;;;;;;5017742;28;20045;-64
2022/05/30 04:19:26;;;;;;;7.45;2.83;;;10.50;99.90;;;;;;5018003;28;20034;-64
2022/05/30 04:21:52;;;;;;;5.43;2.42;;;10.50;99.90;;;;;;5017951;28;20037;-63
2022/05/30 04:24:28;;;;;;;8.63;2.75;;;10.50;99.90;;;;;;5017924;28;20037;-66
2022/05/30 04:26:58;;;;;;;9.90;2.92;;;10.60;99.90;;;;;;5017307;28;20184;-63
2022/05/30 04:29:24;;;;;;;8.70;2.80;;;10.70;99.90;;;;;;5000707;28;20132;-64
2022/05/30 04:32:09;;;;;;;9.40;2.40;;;10.70;99.90;;;;;;5017514;28;20119;-64
2022/05/30 04:34:36;;;;;;;7.65;2.45;;;10.80;99.90;;;;;;5016952;28;20330;-64
2022/05/30 04:37:04;;;;;;;9.55;3.08;;;10.80;99.90;;;;;;5016873;28;20030;-64
2022/05/30 04:39:30;;;;;;;7.88;2.65;;;11.00;99.90;;;;;;5016895;28;20045;-64
2022/05/30 04:41:56;;;;;;;4.82;2.25;;;10.90;99.90;;;;;;5017885;28;20453;-64
2022/05/30 04:44:41;;;;;;;5.57;2.30;;;10.90;99.90;;;;;;5016102;28;20057;-64
2022/05/30 04:47:27;;;;;;;8.15;2.35;;;10.90;99.90;;;;;;5006983;28;20444;-64
2022/05/30 04:49:53;;;;;;;7.25;2.35;;;10.90;99.90;;;;;;5016733;28;20042;-61
2022/05/30 04:52:22;;;;;;;9.90;2.28;;;11.00;99.90;;;;;;5000740;28;20041;-62
2022/05/30 04:54:49;;;;;;;6.20;2.00;;;11.10;99.90;;;;;;5016724;28;20404;-62
2022/05/30 04:57:47;;;;;;;7.35;2.70;;;11.20;99.90;;;;;;5002964;28;20034;-62
2022/05/30 05:00:33;;;;;;;5.60;2.28;;;11.30;99.90;;;;;;5006860;28;20181;-62
2022/05/30 05:02:59;;;;;;;7.45;2.70;;;11.20;99.90;;;;;;5016811;28;20119;-62
2022/05/30 05:05:25;;;;;;;9.75;2.40;;;11.30;99.90;;;;;;5017220;28;20077;-62
2022/05/30 05:08:05;;;;;;;6.82;2.10;;;11.40;99.90;;;;;;5016368;28;20038;-62
2022/05/30 05:10:56;;;;;;;6.55;2.25;;;11.60;99.90;;;;;;5016471;28;20279;-62
2022/05/30 05:13:46;;;;;;;8.50;2.10;;;11.60;99.90;;;;;;4989534;28;20113;-62
2022/05/30 05:16:47;;;;;;;7.85;2.47;;;11.50;99.90;;;;;;4976729;28;20121;-62
2022/05/30 05:19:13;;;;;;;11.25;2.60;;;11.50;99.90;;;;;;5008662;28;20042;-61
2022/05/30 05:21:42;;;;;;;6.93;2.17;;;11.80;99.90;;;;;;5016390;28;20022;-62
2022/05/30 05:24:09;;;;;;;7.78;2.78;;;11.90;99.90;;;;;;5000112;28;20030;-63
2022/05/30 05:27:17;;;;;;;7.35;2.53;;;12.10;99.90;;;;;;4957288;29;20307;-63
2022/05/30 05:29:43;;;;;;;11.45;2.78;;;12.20;99.90;;;;;;4941294;29;20126;-63
2022/05/30 05:32:10;;;;;;;5.82;2.22;;;12.20;99.90;;;;;;4977007;28;20042;-63
2022/05/30 05:34:36;;;;;;;4.55;2.17;;;12.40;99.90;;;;;;5016151;28;20029;-63
2022/05/30 05:37:02;;;;;;;6.20;2.13;;;12.50;99.90;;;;;;5000062;28;20093;-63
2022/05/30 05:39:32;;;;;;;7.90;2.50;;;12.50;99.90;;;;;;5016387;28;20030;-63
2022/05/30 05:42:02;;;;;;;8.85;1.92;;;12.40;99.90;;;;;;4984780;28;20022;-63
2022/05/30 05:44:27;;;;;;;7.85;2.60;;;12.40;99.90;;;;;;5016898;28;20029;-64
2022/05/30 05:46:57;;;;;;;7.45;2.20;;;12.50;99.90;;;;;;4999913;28;20030;-63
2022/05/30 05:49:25;;;;;;;6.85;2.08;;;12.80;99.90;;;;;;5015990;28;20099;-63
2022/05/30 05:51:56;;;;;;;5.88;1.92;;;12.80;99.90;;;;;;4999873;28;20088;-64
2022/05/30 05:54:25;;;;;;;7.32;2.00;;;12.90;99.90;;;;;;5016889;28;20030;-65
2022/05/30 05:56:53;;;;;;;7.45;1.80;;;13.00;99.90;;;;;;5019954;28;20057;-63
2022/05/30 05:59:30;;;;;;;7.28;1.85;;;12.80;99.90;;;;;;5004888;28;20121;-63
2022/05/30 06:01:56;;;;;;;4.18;1.50;;;12.70;99.90;;;;;;5019479;28;20058;-63
2022/05/30 06:04:23;;;;;;;6.00;1.75;;;12.70;99.90;;;;;;5019603;28;20357;-63
2022/05/30 06:07:15;;;;;;;5.97;1.63;;;12.60;99.90;;;;;;5020320;28;20038;-63
2022/05/30 06:09:58;;;;;;;6.75;1.58;;;12.50;99.90;;;;;;5005766;28;20034;-65
2022/05/30 06:12:38;;;;;;;6.38;1.77;;;12.50;99.90;;;;;;5019814;28;20079;-64
2022/05/30 06:15:05;;;;;;;7.75;1.83;;;12.40;99.90;;;;;;5019449;28;20337;-64
2022/05/30 06:17:42;;;;;;;6.50;1.20;;;12.20;99.90;;;;;;5019464;28;20100;-64
2022/05/30 06:20:10;;;;;;;4.18;1.30;;;12.20;99.90;;;;;;5020430;28;20034;-64
2022/05/30 06:22:36;;;;;;;7.53;1.38;;;12.40;99.90;;;;;;5003009;28;20026;-61
2022/05/30 06:25:10;;;;;;;6.03;1.50;;;12.80;99.90;;;;;;5019430;28;20347;-62
2022/05/30 06:27:58;;;;;;;4.35;1.10;;;13.00;99.90;;;;;;5019983;28;20072;-64
2022/05/30 06:30:37;;;;;;;5.32;1.73;;;13.10;99.90;;;;;;5005040;28;20416;-64
2022/05/30 06:33:03;;;;;;;5.63;1.50;;;12.80;99.90;;;;;;5019441;28;20057;-64
2022/05/30 06:35:46;;;;;;;4.63;1.27;;;12.60;99.90;;;;;;5019211;28;20309;-64
2022/05/30 06:38:14;;;;;;;5.45;1.55;;;12.90;99.90;;;;;;5019063;28;20100;-62
2022/05/30 06:40:43;;;;;;;3.50;1.05;;;13.10;99.90;;;;;;5003045;28;20034;-64
2022/05/30 06:43:16;;;;;;;6.43;1.20;;;13.40;99.90;;;;;;5020076;28;20026;-63
2022/05/30 06:46:06;;;;;;;2.42;1.00;;;13.80;99.90;;;;;;4991841;28;20073;-64
2022/05/30 06:48:55;;;;;;;3.08;1.00;;;14.30;99.90;;;;;;5019623;28;20041;-64
2022/05/30 06:51:35;;;;;;;5.25;1.25;;;14.80;99.90;;;;;;5005221;28;20425;-61
2022/05/30 06:54:03;;;;;;;3.58;1.20;;;15.30;99.90;;;;;;5018706;28;20030;-62
2022/05/30 06:56:32;;;;;;;4.78;1.27;;;15.50;99.90;;;;;;5019870;28;20030;-64
2022/05/30 06:58:58;;;;;;;3.75;1.17;;;15.00;99.90;;;;;;5002421;28;20036;-64
2022/05/30 07:01:30;;;;;;;4.72;1.20;;;14.60;99.90;;;;;;5018426;28;20321;-65
2022/05/30 07:04:14;;;;;;;3.72;0.80;;;14.90;99.90;;;;;;5020033;28;20137;-64
2022/05/30 07:07:09;;;;;;;3.05;0.90;;;15.30;99.90;;;;;;4982499;28;20473;-64
2022/05/30 07:09:58;;;;;;;3.33;0.82;;;15.30;99.90;;;;;;5005365;28;20402;-63
2022/05/30 07:13:03;;;;;;;3.97;1.00;;;15.40;99.90;;;;;;5005012;28;20034;-62
2022/05/30 07:15:31;;;;;;;7.28;1.35;;;15.60;99.90;;;;;;5002046;28;20112;-62
2022/05/30 07:17:58;;;;;;;3.92;0.88;;;15.80;99.90;;;;;;5018272;28;20038;-62
2022/05/30 07:20:24;;;;;;;2.85;0.82;;;15.70;99.90;;;;;;5018987;28;20181;-63
2022/05/30 07:23:28;;;;;;;3.50;0.73;;;15.40;99.90;;;;;;4987020;28;20038;-63
2022/05/30 07:26:20;;;;;;;3.03;0.80;;;15.10;99.90;;;;;;4998311;28;20198;-62
2022/05/30 07:29:05;;;;;;;3.80;1.00;;;15.30;99.90;;;;;;5014203;28;20428;-61
2022/05/30 07:31:49;;;;;;;3.03;1.00;;;15.50;99.90;;;;;;5019208;28;20052;-61
2022/05/30 07:34:38;;;;;;;4.38;1.10;;;15.70;99.90;;;;;;4991109;28;20458;-62
2022/05/30 07:37:23;;;;;;;4.57;1.00;;;15.80;99.90;;;;;;5018961;28;20373;-63
2022/05/30 07:40:18;;;;;;;4.38;0.73;;;15.90;99.90;;;;;;5014556;28;20054;-63
2022/05/30 07:43:19;;;;;;;5.13;0.95;;;15.80;99.90;;;;;;4958818;29;20277;-63
2022/05/30 07:45:53;;;;;;;9.27;1.15;;;15.80;99.90;;;;;;4993822;28;20335;-63
2022/05/30 07:48:28;;;;;;;4.45;1.25;;;16.30;99.90;;;;;;5002660;28;20045;-63
2022/05/30 07:51:14;;;;;;;2.78;0.70;;;16.20;99.90;;;;;;5018453;28;20057;-63
2022/05/30 07:53:57;;;;;;;3.35;0.82;;;16.30;99.90;;;;;;5018020;28;20026;-63
2022/05/30 07:56:36;;;;;;;5.65;0.70;;;16.40;99.90;;;;;;5003340;28;20120;-63
2022/05/30 07:59:02;;;;;;;4.70;0.75;;;16.50;99.90;;;;;;5002214;28;20041;-65
2022/05/30 08:01:29;;;;;;;1.60;0.60;;;16.50;99.90;;;;;;5001038;28;20112;-64
2022/05/30 08:03:54;;;;;;;3.10;1.10;;;16.50;99.90;;;;;;5001435;28;20440;-64
2022/05/30 08:06:51;;;;;;;3.33;0.90;;;16.50;99.90;;;;;;5008886;28;20042;-64
2022/05/30 08:09:35;;;;;;;4.60;0.95;;;16.40;99.90;;;;;;5018087;28;20056;-64
2022/05/30 08:12:06;;;;;;;3.15;0.82;;;16.00;99.90;;;;;;5017365;28;20030;-64
2022/05/30 08:14:50;;;;;;;3.90;0.80;;;15.90;99.90;;;;;;5003947;28;20049;-64
2022/05/30 08:17:16;;;;;;;2.95;0.98;;;15.70;99.90;;;;;;5017207;28;20029;-64
2022/05/30 08:19:42;;;;;;;3.17;0.70;;;15.60;99.90;;;;;;5000734;28;20041;-64
2022/05/30 08:22:10;;;;;;;4.13;0.90;;;15.50;99.90;;;;;;5017091;28;20050;-64
2022/05/30 08:24:39;;;;;;;5.57;1.17;;;15.40;99.90;;;;;;5017140;28;20034;-64
2022/05/30 08:27:11;;;;;;;2.88;0.90;;;15.30;99.90;;;;;;5017393;28;20428;-63
2022/05/30 08:29:42;;;;;;;4.63;0.80;;;15.20;99.90;;;;;;5001591;28;20084;-64
2022/05/30 08:32:09;;;;;;;5.45;0.90;;;14.80;99.90;;;;;;4984686;28;20036;-63
2022/05/30 08:34:53;;;;;;;3.13;0.80;;;14.60;99.90;;;;;;5018272;28;20060;-63
2022/05/30 08:37:19;;;;;;;4.15;0.80;;;15.10;99.90;;;;;;4984476;28;20049;-63
2022/05/30 08:42:31;;;;;;;4.80;0.90;;;14.30;99.90;;;;;;5016772;28;20030;-60
2022/05/30 08:45:18;;;;;;;6.25;1.15;;;14.10;99.90;;;;;;5017273;28;20038;-62
2022/05/30 08:48:12;;;;;;;3.20;0.90;;;14.60;99.90;;;;;;5003694;28;20032;-61
2022/05/30 08:50:51;;;;;;;6.78;1.17;;;14.90;99.90;;;;;;5000862;28;20049;-64
2022/05/30 08:53:36;;;;;;;5.88;1.00;;;14.80;99.90;;;;;;5016600;28;20461;-62
2022/05/30 08:56:14;;;;;;;7.43;1.00;;;14.60;99.90;;;;;;5016665;28;20051;-65
2022/05/30 08:59:32;;;;;;;5.82;1.08;;;14.40;99.90;;;;;;5017886;28;20049;-64
2022/05/30 09:02:12;;;;;;;4.15;1.25;;;14.30;99.90;;;;;;5016295;28;20129;-61
2022/05/30 09:05:09;;;;;;;5.13;1.05;;;14.40;99.90;;;;;;5016463;28;20117;-62
2022/05/30 09:07:49;;;;;;;4.15;1.00;;;14.70;99.90;;;;;;5000961;28;20045;-64
2022/05/30 09:11:02;;;;;;;4.25;0.88;;;14.60;99.90;;;;;;5016510;28;20117;-63
2022/05/30 09:13:37;;;;;;;4.50;1.25;;;14.00;99.90;;;;;;4994468;28;20042;-62
2022/05/30 09:16:37;;;;;;;4.40;0.90;;;13.50;99.90;;;;;;5016796;28;20040;-63
2022/05/30 09:19:10;;;;;;;4.50;1.00;;;14.10;99.90;;;;;;5016545;28;20294;-62
2022/05/30 09:21:37;;;;;;;6.28;1.15;;;14.80;99.90;;;;;;5000012;28;20030;-62
2022/05/30 09:24:04;;;;;;;7.45;1.10;;;15.20;99.90;;;;;;5000405;28;20172;-60
2022/05/30 09:26:35;;;;;;;4.18;1.00;;;15.50;99.90;;;;;;5016145;28;20038;-63
2022/05/30 09:29:29;;;;;;;5.32;0.93;;;15.70;99.90;;;;;;5016119;28;20374;-63
2022/05/30 09:32:24;;;;;;;6.97;1.20;;;15.70;99.90;;;;;;5021289;28;20049;-64
2022/05/30 09:34:53;;;;;;;5.30;1.15;;;15.90;99.90;;;;;;5021104;28;20045;-64
2022/05/30 09:37:45;;;;;;;;;;;15.10;99.90;;;;;;5019230;28;20038;-60
2022/05/30 09:40:12;;;;;;;3.97;1.10;;;15.20;99.90;;;;;;5021594;28;20325;-62
2022/05/30 09:43:00;;;;;;;5.85;1.10;;;15.30;99.90;;;;;;5020020;28;20480;-62
2022/05/30 09:45:29;;;;;;;5.82;1.30;;;15.70;99.90;;;;;;5019961;28;20045;-63
2022/05/30 09:48:19;;;;;;;4.50;0.93;;;15.90;99.90;;;;;;4992936;28;20334;-64
2022/05/30 09:51:06;;;;;;;2.90;1.10;;;15.60;99.90;;;;;;5020322;28;20349;-63
2022/05/30 09:53:49;;;;;;;3.78;0.90;;;15.80;99.90;;;;;;5019855;28;20030;-61
2022/05/30 09:56:20;;;;;;;3.67;0.80;;;15.60;99.90;;;;;;5020600;28;20034;-63
2022/05/30 09:59:26;;;;;;;5.68;1.20;;;15.30;99.90;;;;;;5004359;28;20091;-61
2022/05/30 10:02:24;;;;;;;5.78;1.08;;;14.40;99.90;;;;;;5019639;28;20054;-62
2022/05/30 10:05:04;;;;;;;5.65;1.17;;;14.50;99.90;;;;;;5019717;28;20030;-63
2022/05/30 10:07:32;;;;;;;4.88;1.00;;;14.90;99.90;;;;;;5019616;28;20037;-63
2022/05/30 10:10:21;;;;;;;4.70;0.95;;;14.80;99.90;;;;;;5019778;28;20029;-62
2022/05/30 10:12:57;;;;;;;4.55;1.10;;;14.30;99.90;;;;;;5019615;28;20053;-61
2022/05/30 10:15:56;;;;;;;2.92;1.10;;;14.60;99.90;;;;;;5019640;28;20042;-63
2022/05/30 10:18:44;;;;;;;5.10;1.02;;;15.30;99.90;;;;;;5019642;28;20390;-63
2022/05/30 10:28:54;;;;;;;4.78;0.95;;;15.20;99.90;;;;;;5011900;28;20421;-64
2022/05/30 10:32:17;;;;;;;5.32;0.98;;;15.70;99.90;;;;;;5020141;28;20038;-65
2022/05/30 10:35:01;;;;;;;4.93;0.90;;;15.60;99.90;;;;;;5011317;28;20318;-61
2022/05/30 10:37:51;;;;;;;4.07;1.30;;;15.50;99.90;;;;;;5002923;28;20113;-62
2022/05/30 10:40:33;;;;;;;4.28;1.10;;;15.90;99.90;;;;;;5019112;28;20044;-64
2022/05/30 10:43:13;;;;;;;2.95;0.90;;;16.10;99.90;;;;;;5017746;28;20064;-63
2022/05/30 10:45:49;;;;;;;5.55;1.15;;;17.10;99.90;;;;;;5019200;28;20305;-64
2022/05/30 10:48:33;;;;;;;4.03;0.93;;;17.10;99.90;;;;;;5018858;28;20076;-64
2022/05/30 10:51:16;;;;;;;3.13;0.80;;;16.40;99.90;;;;;;5018923;28;20022;-64
2022/05/30 10:53:51;;;;;;;2.13;0.82;;;17.20;99.90;;;;;;5019805;28;20018;-62
2022/05/30 10:56:37;;;;;;;5.32;1.02;;;18.20;99.90;;;;;;5019553;28;20120;-63
2022/05/30 10:59:32;;;;;;;2.67;1.02;;;18.00;99.90;;;;;;5018906;28;20431;-63
2022/05/30 11:02:25;;;;;;;6.53;1.40;;;16.90;99.90;;;;;;5018458;28;20360;-60
2022/05/30 11:05:08;;;;;;;5.38;1.20;;;16.50;99.90;;;;;;5018666;28;20123;-64
2022/05/30 11:07:48;;;;;;;2.90;0.80;;;16.60;99.90;;;;;;5018562;28;20126;-64
2022/05/30 11:10:43;;;;;;;5.82;1.40;;;16.40;99.90;;;;;;5018500;28;20022;-64
2022/05/30 11:13:28;;;;;;;5.75;1.50;;;16.80;99.90;;;;;;5002422;28;20021;-63
2022/05/30 11:16:42;;;;;;;5.90;1.60;;;17.50;99.90;;;;;;5019495;28;20045;-64
2022/05/30 11:19:54;;;;;;;7.00;1.52;;;18.30;99.90;;;;;;5019776;28;20317;-64
2022/05/30 11:22:33;;;;;;;6.03;1.52;;;18.00;99.90;;;;;;5018295;28;20424;-63
2022/05/30 11:24:59;;;;;;;6.50;1.52;;;16.50;99.90;;;;;;5018375;28;20030;-63
2022/05/30 11:27:37;;;;;;;5.70;1.50;;;16.00;99.90;;;;;;5018982;28;20038;-63
2022/05/30 11:30:08;;;;;;;3.88;1.30;;;16.10;99.90;;;;;;5019446;28;20030;-61
2022/05/30 11:32:57;;;;;;;6.05;1.40;;;16.10;99.90;;;;;;5018880;28;20111;-64
2022/05/30 11:35:32;;;;;;;7.20;1.63;;;17.00;99.90;;;;;;5018105;28;20135;-64
2022/05/30 11:38:19;;;;;;;7.18;1.50;;;16.60;99.90;;;;;;5018700;28;20112;-62
2022/05/30 11:41:05;;;;;;;7.20;1.58;;;16.30;99.90;;;;;;5018432;28;20341;-63
2022/05/30 11:44:08;;;;;;;4.95;1.30;;;16.70;99.90;;;;;;4988633;28;20107;-64
2022/05/30 11:46:41;;;;;;;6.50;1.70;;;16.60;99.90;;;;;;5018619;28;20374;-64
2022/05/30 11:49:27;;;;;;;;;;;17.70;99.90;;;;;;5018954;28;20053;-65
2022/05/30 11:52:10;;;;;;;5.30;1.50;;;18.50;99.90;;;;;;5017287;28;19909;-63
2022/05/30 11:54:55;;;;;;;3.95;1.20;;;19.00;99.90;;;;;;5017974;28;20025;-66
2022/05/30 11:57:48;;;;;;;5.38;1.30;;;20.30;99.90;;;;;;5018355;28;20390;-63
2022/05/30 12:00:40;;;;;;;4.85;1.40;;;20.20;99.90;;;;;;5017949;28;20033;-64
2022/05/30 12:03:29;;;;;;;4.93;1.17;;;19.40;99.90;;;;;;5017609;28;20448;-65
2022/05/30 12:06:13;;;;;;;4.00;1.20;;;20.70;99.90;;;;;;5017993;28;20160;-66
2022/05/30 12:09:14;;;;;;;4.40;1.40;;;21.90;99.90;;;;;;5017429;28;20045;-65
2022/05/30 12:12:22;;;;;;;5.60;1.60;;;21.50;99.90;;;;;;5018193;28;20032;-64
2022/05/30 12:15:15;;;;;;;4.88;1.38;;;19.70;99.90;;;;;;4982368;28;20295;-64
2022/05/30 12:24:07;;;;;;;4.97;1.30;;;20.20;99.90;;;;;;5017185;28;20077;-66
2022/05/30 12:26:58;;;;;;;4.05;1.20;;;19.70;99.90;;;;;;5017961;28;20409;-64
2022/05/30 12:29:35;;;;;;;3.97;1.17;;;21.00;99.90;;;;;;5017951;28;20303;-63
2022/05/30 12:32:16;;;;;;;5.13;1.73;;;20.70;99.90;;;;;;5017808;28;20364;-64
2022/05/30 12:35:00;;;;;;;5.50;1.75;;;18.70;99.90;;;;;;5017821;28;20105;-63
2022/05/30 12:38:02;;;;;;;3.10;1.45;;;20.40;99.90;;;;;;5017647;28;20029;-64
2022/05/30 12:40:27;;;;;;;3.05;1.30;;;21.70;99.90;;;;;;5016879;28;20187;-65
2022/05/30 12:43:22;;;;;;;3.67;1.30;;;23.20;99.90;;;;;;5016938;28;20109;-65
2022/05/30 12:45:56;;;;;;;5.03;1.15;;;26.00;93.60;;;;;;5017585;28;20037;-60
2022/05/30 12:48:34;;;;;;;3.13;1.20;;;27.90;84.00;;;;;;5016698;28;20322;-60
2022/05/30 12:51:24;;;;;;;4.05;0.90;;;29.20;75.50;;;;;;5017457;28;20026;-62
2022/05/30 12:53:58;;;;;;;3.25;1.05;;;30.30;66.90;;;;;;5016667;28;20057;-64
2022/05/30 12:59:11;;;;;;;3.00;1.10;;;30.10;62.80;;;;;;5016675;28;20047;-65
2022/05/30 13:01:43;;;;;;;2.90;0.90;;;28.20;60.20;;;;;;5017315;28;20046;-62
2022/05/30 13:04:15;;;;;;;1.90;0.80;;;28.60;61.50;;;;;;5017264;28;20038;-63
2022/05/30 13:06:52;;;;;;;3.88;1.00;;;29.20;60.30;;;;;;5016704;28;20058;-64
2022/05/30 13:09:36;;;;;;;3.53;1.10;;;29.30;59.30;;;;;;5017263;28;20051;-64
2022/05/30 13:12:11;;;;;;;5.68;1.20;;;29.20;59.70;;;;;;5016582;28;20034;-64
2022/05/30 13:14:36;;;;;;;4.57;1.42;;;29.00;61.40;;;;;;5017749;28;20117;-64
2022/05/30 13:17:17;;;;;;;5.43;1.40;;;28.20;60.70;;;;;;5016341;28;20450;-64
2022/05/30 13:19:47;;;;;;;4.72;1.40;;;28.40;63.10;;;;;;5017225;28;20038;-65
2022/05/30 13:22:25;;;;;;;3.65;1.13;;;29.20;61.80;;;;;;5017130;28;20109;-65
2022/05/30 13:24:53;;;;;;;7.18;1.50;;;28.40;63.10;;;;;;5017112;28;20379;-63
2022/05/30 13:27:19;;;;;;;4.25;1.33;;;26.40;65.70;;;;;;5017250;28;20310;-65
2022/05/30 13:29:45;;;;;;;4.75;1.60;;;25.00;70.20;;;;;;5016268;28;20033;-65
2022/05/30 13:32:16;;;;;;;4.07;1.77;;;25.10;70.60;;;;;;5017048;28;20390;-64
2022/05/30 13:35:06;;;;;;;6.05;1.70;;;24.50;70.60;;;;;;5017637;28;20259;-65
2022/05/30 13:37:34;;;;;;;7.07;1.55;;;23.80;73.70;;;;;;5016324;28;20026;-65
2022/05/30 13:40:05;;;;;;;6.75;1.98;;;22.80;76.80;;;;;;5017051;28;20314;-65
2022/05/30 13:42:45;;;;;;;7.88;1.98;;;22.10;79.80;;;;;;5016231;28;20026;-66
2022/05/30 13:45:11;;;;;;;5.18;1.60;;;21.80;80.70;;;;;;5017209;28;20037;-65
2022/05/30 13:47:40;;;;;;;7.60;1.50;;;22.40;80.30;;;;;;5016814;28;20049;-65
2022/05/30 13:50:06;;;;;;;5.18;1.48;;;22.80;78.20;;;;;;5016841;28;20022;-65
2022/05/30 13:52:33;;;;;;;5.05;1.38;;;22.50;78.80;;;;;;4999902;28;20029;-65
2022/05/30 13:55:10;;;;;;;3.08;1.20;;;22.20;80.70;;;;;;5016837;28;20045;-65
2022/05/30 13:57:37;;;;;;;5.20;1.38;;;21.50;81.10;;;;;;5016298;28;20026;-64
2022/05/30 14:00:17;;;;;;;3.67;1.13;;;21.40;83.30;;;;;;5016814;28;20034;-65
2022/05/30 14:02:46;;;;;;;7.70;1.33;;;21.30;85.10;;;;;;5015975;28;20044;-64